createdAt,value
2022-12-25T00:00:45.275Z,6.63
2022-12-25T00:03:17.701Z,6.62
2022-12-25T00:05:45.745Z,6.53
2022-12-25T00:08:14.389Z,6.49
2022-12-25T00:10:45.397Z,6.43
2022-12-25T00:13:15.149Z,6.42
2022-12-25T00:15:45.437Z,6.38
2022-12-25T00:18:13.912Z,6.40
2022-12-25T00:20:42.500Z,6.33
2022-12-25T00:23:10.575Z,6.33
2022-12-25T00:25:40.694Z,6.34
2022-12-25T00:28:09.483Z,6.28
2022-12-25T00:30:41.145Z,6.30
2022-12-25T00:33:09.691Z,6.27
2022-12-25T00:35:38.103Z,6.21
2022-12-25T00:38:06.642Z,6.21
2022-12-25T00:40:35.064Z,6.16
2022-12-25T00:43:02.959Z,6.16
2022-12-25T00:45:31.071Z,6.14
2022-12-25T00:48:04.372Z,6.18
2022-12-25T00:50:32.494Z,6.24
2022-12-25T00:53:00.715Z,6.14
2022-12-25T00:55:28.616Z,6.09
2022-12-25T00:57:58.229Z,6.03
2022-12-25T01:00:27.076Z,6.03
2022-12-25T01:02:55.515Z,6.02
2022-12-25T01:05:25.160Z,5.98
2022-12-25T01:07:54.717Z,5.93
2022-12-25T01:10:24.849Z,5.93
2022-12-25T01:12:54.371Z,5.92
2022-12-25T01:15:23.055Z,5.92
2022-12-25T01:17:51.570Z,5.91
2022-12-25T01:20:23.052Z,5.88
2022-12-25T01:22:52.833Z,5.92
2022-12-25T01:25:23.430Z,5.94
2022-12-25T01:27:52.221Z,5.98
2022-12-25T01:30:21.066Z,5.97
2022-12-25T01:32:49.812Z,5.95
2022-12-25T01:35:18.231Z,5.87
2022-12-25T01:37:46.259Z,5.82
2022-12-25T01:40:16.683Z,5.75
2022-12-25T01:42:45.286Z,5.72
2022-12-25T01:45:36.757Z,5.67
2022-12-25T01:48:11.486Z,5.79
2022-12-25T01:50:41.824Z,5.66
2022-12-25T01:53:10.314Z,5.54
2022-12-25T01:55:42.344Z,5.48
2022-12-25T01:58:11.014Z,5.37
2022-12-25T02:00:39.520Z,5.28
2022-12-25T02:03:08.660Z,5.21
2022-12-25T02:05:38.659Z,5.19
2022-12-25T02:08:10.136Z,5.20
2022-12-25T02:10:39.816Z,5.27
2022-12-25T02:13:08.366Z,5.26
2022-12-25T02:15:42.738Z,5.25
2022-12-25T02:18:16.568Z,5.19
2022-12-25T02:20:57.807Z,5.13
2022-12-25T02:23:47.083Z,5.13
2022-12-25T02:26:23.581Z,5.08
2022-12-25T02:28:57.509Z,5.09
2022-12-25T02:31:30.957Z,5.06
2022-12-25T02:34:11.832Z,5.01
2022-12-25T02:36:46.014Z,4.96
2022-12-25T02:39:39.093Z,4.94
2022-12-25T02:42:11.013Z,4.89
2022-12-25T02:45:01.369Z,4.85
2022-12-25T02:47:50.013Z,4.81
2022-12-25T02:50:36.138Z,4.75
2022-12-25T02:53:23.108Z,4.73
2022-12-25T02:56:08.943Z,4.71
2022-12-25T02:58:58.037Z,4.70
2022-12-25T03:01:47.280Z,4.64
2022-12-25T03:04:37.267Z,4.62
2022-12-25T03:07:08.185Z,4.59
2022-12-25T03:09:57.876Z,4.59
2022-12-25T03:12:40.805Z,4.53
2022-12-25T03:15:28.306Z,4.51
2022-12-25T03:18:02.211Z,4.48
2022-12-25T03:20:48.627Z,4.50
2022-12-25T03:23:37.171Z,4.43
2022-12-25T03:26:23.384Z,4.37
2022-12-25T03:28:51.589Z,4.34
2022-12-25T03:31:24.280Z,4.40
2022-12-25T03:34:18.599Z,4.33
2022-12-25T03:37:00.162Z,4.37
2022-12-25T03:39:48.270Z,4.30
2022-12-25T03:42:43.413Z,4.26
2022-12-25T03:45:31.161Z,4.24
2022-12-25T03:48:17.032Z,4.29
2022-12-25T03:51:08.028Z,4.25
2022-12-25T03:53:58.844Z,4.22
2022-12-25T03:56:44.866Z,4.21
2022-12-25T03:59:31.105Z,4.19
2022-12-25T04:02:16.650Z,4.16
2022-12-25T04:05:01.373Z,4.17
2022-12-25T04:07:48.529Z,4.16
2022-12-25T04:10:37.050Z,4.15
2022-12-25T04:13:22.785Z,4.17
2022-12-25T04:16:11.269Z,4.17
2022-12-25T04:18:56.511Z,4.17
2022-12-25T04:21:42.856Z,4.13
2022-12-25T04:24:36.831Z,4.10
2022-12-25T04:27:23.155Z,4.12
2022-12-25T04:30:08.831Z,4.11
2022-12-25T04:32:54.922Z,4.07
2022-12-25T04:35:40.255Z,4.04
2022-12-25T04:38:08.813Z,4.02
2022-12-25T04:40:38.451Z,4.00
2022-12-25T04:43:06.685Z,3.99
2022-12-25T04:45:34.852Z,3.98
2022-12-25T04:48:03.445Z,3.94
2022-12-25T04:50:31.854Z,3.93
2022-12-25T04:53:00.373Z,3.93
2022-12-25T04:55:28.486Z,3.94
2022-12-25T04:57:58.168Z,3.96
2022-12-25T05:00:26.354Z,3.93
2022-12-25T05:02:55.057Z,3.89
2022-12-25T05:05:24.965Z,3.82
2022-12-25T05:07:53.210Z,3.85
2022-12-25T05:10:21.470Z,3.76
2022-12-25T05:12:49.563Z,3.78
2022-12-25T05:15:19.542Z,3.74
2022-12-25T05:17:47.478Z,3.72
2022-12-25T05:20:15.467Z,3.67
2022-12-25T05:22:44.311Z,3.62
2022-12-25T05:25:12.539Z,3.58
2022-12-25T05:27:40.638Z,3.55
2022-12-25T05:30:10.085Z,3.54
2022-12-25T05:32:41.120Z,3.57
2022-12-25T05:35:11.558Z,3.56
2022-12-25T05:37:39.493Z,3.52
2022-12-25T05:40:12.204Z,3.53
2022-12-25T05:42:40.441Z,3.50
2022-12-25T05:45:09.559Z,3.47
2022-12-25T05:47:39.018Z,3.42
2022-12-25T05:50:08.873Z,3.36
2022-12-25T05:52:36.849Z,3.37
2022-12-25T05:55:07.392Z,3.35
2022-12-25T05:57:35.475Z,3.37
2022-12-25T06:00:03.614Z,3.27
2022-12-25T06:02:42.587Z,3.31
2022-12-25T06:05:12.102Z,3.23
2022-12-25T06:07:42.433Z,3.21
2022-12-25T06:10:11.282Z,3.18
2022-12-25T06:12:41.003Z,3.12
2022-12-25T06:15:10.757Z,3.11
2022-12-25T06:17:39.067Z,3.10
2022-12-25T06:20:10.358Z,3.12
2022-12-25T06:22:40.525Z,3.09
2022-12-25T06:25:09.731Z,3.07
2022-12-25T06:27:38.162Z,3.07
2022-12-25T06:30:07.610Z,2.96
2022-12-25T06:32:35.723Z,2.93
2022-12-25T06:35:04.490Z,2.80
2022-12-25T06:37:34.047Z,2.78
2022-12-25T06:40:03.156Z,2.71
2022-12-25T06:42:33.404Z,2.81
2022-12-25T06:45:01.534Z,2.71
2022-12-25T06:47:30.901Z,2.58
2022-12-25T06:49:58.925Z,2.43
2022-12-25T06:52:28.704Z,2.56
2022-12-25T06:54:58.237Z,2.47
2022-12-25T06:57:26.527Z,2.41
2022-12-25T06:59:55.648Z,2.49
2022-12-25T07:02:24.956Z,2.44
2022-12-25T07:04:55.635Z,2.39
2022-12-25T07:07:23.980Z,2.36
2022-12-25T07:09:51.906Z,2.40
2022-12-25T07:12:23.594Z,2.36
2022-12-25T07:14:51.949Z,2.38
2022-12-25T07:17:21.297Z,2.40
2022-12-25T07:19:49.824Z,2.48
2022-12-25T07:22:18.530Z,2.35
2022-12-25T07:24:47.408Z,2.28
2022-12-25T07:27:15.412Z,2.25
2022-12-25T07:29:45.466Z,2.05
2022-12-25T07:32:13.817Z,2.15
2022-12-25T07:34:42.366Z,2.21
2022-12-25T07:37:10.489Z,2.26
2022-12-25T07:39:38.914Z,2.35
2022-12-25T07:42:08.142Z,2.45
2022-12-25T07:44:37.518Z,2.52
2022-12-25T07:47:08.414Z,2.54
2022-12-25T07:49:38.449Z,2.46
2022-12-25T07:52:06.631Z,2.36
2022-12-25T07:54:35.384Z,2.33
2022-12-25T07:57:03.544Z,2.28
2022-12-25T07:59:32.604Z,2.38
2022-12-25T08:02:01.459Z,2.34
2022-12-25T08:04:31.591Z,2.49
2022-12-25T08:07:00.389Z,2.46
2022-12-25T08:09:29.008Z,2.47
2022-12-25T08:11:57.063Z,2.48
2022-12-25T08:14:25.877Z,2.60
2022-12-25T08:16:53.957Z,2.65
2022-12-25T08:19:23.754Z,2.70
2022-12-25T08:21:53.417Z,2.79
2022-12-25T08:24:21.763Z,2.74
2022-12-25T08:26:51.285Z,2.58
2022-12-25T08:29:19.808Z,2.62
2022-12-25T08:31:49.069Z,2.70
2022-12-25T08:34:21.952Z,2.81
2022-12-25T08:36:50.296Z,2.80
2022-12-25T08:39:19.805Z,2.88
2022-12-25T08:41:48.260Z,3.03
2022-12-25T08:44:16.150Z,3.03
2022-12-25T08:46:44.926Z,3.07
2022-12-25T08:49:13.668Z,3.15
2022-12-25T08:51:41.467Z,3.23
2022-12-25T08:54:10.336Z,3.28
2022-12-25T08:56:39.867Z,3.33
2022-12-25T08:59:08.109Z,3.15
2022-12-25T09:01:36.216Z,3.23
2022-12-25T09:04:05.078Z,3.31
2022-12-25T09:06:33.791Z,3.36
2022-12-25T09:09:02.974Z,3.56
2022-12-25T09:11:31.032Z,3.71
2022-12-25T09:14:01.370Z,3.69
2022-12-25T09:16:30.215Z,3.65
2022-12-25T09:18:59.165Z,3.68
2022-12-25T09:21:28.954Z,3.80
2022-12-25T09:23:59.217Z,3.59
2022-12-25T09:26:28.132Z,3.51
2022-12-25T09:28:56.366Z,3.43
2022-12-25T09:31:26.493Z,3.46
2022-12-25T09:33:57.938Z,3.42
2022-12-25T09:36:26.500Z,3.27
2022-12-25T09:38:55.000Z,3.43
2022-12-25T09:41:29.676Z,3.42
2022-12-25T09:44:02.809Z,3.48
2022-12-25T09:46:40.175Z,3.54
2022-12-25T09:49:19.704Z,3.51
2022-12-25T09:51:54.765Z,3.24
2022-12-25T09:54:26.485Z,3.33
2022-12-25T09:56:54.468Z,3.38
2022-12-25T09:59:25.568Z,3.46
2022-12-25T10:02:24.575Z,3.42
2022-12-25T10:05:18.410Z,3.45
2022-12-25T10:07:53.178Z,3.66
2022-12-25T10:10:32.625Z,3.86
2022-12-25T10:13:05.146Z,3.84
2022-12-25T10:15:39.202Z,3.59
2022-12-25T10:18:29.546Z,3.46
2022-12-25T10:20:59.119Z,3.60
2022-12-25T10:23:30.942Z,3.51
2022-12-25T10:25:59.036Z,3.49
2022-12-25T10:28:31.458Z,3.46
2022-12-25T10:31:06.624Z,3.47
2022-12-25T10:33:36.082Z,3.45
2022-12-25T10:36:08.074Z,3.28
2022-12-25T10:38:36.806Z,3.35
2022-12-25T10:41:15.057Z,3.25
2022-12-25T10:43:50.493Z,3.28
2022-12-25T10:46:20.773Z,3.46
2022-12-25T10:48:53.723Z,3.43
2022-12-25T10:51:30.159Z,3.47
2022-12-25T10:54:00.100Z,3.69
2022-12-25T10:56:28.099Z,3.73
2022-12-25T10:59:06.866Z,3.75
2022-12-25T11:01:35.194Z,3.77
2022-12-25T11:04:05.958Z,3.83
2022-12-25T11:06:35.069Z,3.81
2022-12-25T11:09:04.002Z,3.71
2022-12-25T11:11:43.334Z,3.71
2022-12-25T11:14:17.328Z,3.66
2022-12-25T11:16:45.863Z,3.89
2022-12-25T11:19:28.385Z,3.76
2022-12-25T11:22:01.852Z,3.87
2022-12-25T11:24:31.166Z,3.84
2022-12-25T11:27:03.775Z,3.88
2022-12-25T11:29:37.944Z,4.02
2022-12-25T11:32:12.750Z,4.19
2022-12-25T11:34:46.328Z,4.02
2022-12-25T11:37:17.512Z,3.89
2022-12-25T11:39:47.084Z,3.89
2022-12-25T11:42:21.029Z,3.99
2022-12-25T11:44:54.245Z,4.01
2022-12-25T11:47:26.435Z,3.99
2022-12-25T11:50:01.009Z,3.83
2022-12-25T11:52:34.491Z,3.92
2022-12-25T11:55:08.875Z,4.03
2022-12-25T11:57:37.901Z,4.21
2022-12-25T12:00:10.352Z,4.25
2022-12-25T12:02:44.729Z,4.31
2022-12-25T12:05:19.405Z,4.36
2022-12-25T12:07:58.730Z,4.17
2022-12-25T12:10:34.801Z,4.10
2022-12-25T12:13:14.904Z,4.14
2022-12-25T12:15:44.882Z,4.14
2022-12-25T12:18:21.948Z,4.21
2022-12-25T12:21:03.288Z,4.26
2022-12-25T12:23:49.654Z,4.35
2022-12-25T12:26:22.147Z,4.35
2022-12-25T12:28:54.036Z,4.42
2022-12-25T12:31:22.861Z,4.40
2022-12-25T12:33:54.597Z,4.53
2022-12-25T12:36:35.938Z,4.57
2022-12-25T12:39:07.175Z,4.52
2022-12-25T12:41:46.489Z,4.61
2022-12-25T12:44:17.747Z,4.67
2022-12-25T12:46:55.087Z,4.78
2022-12-25T12:49:26.406Z,4.72
2022-12-25T12:52:06.941Z,4.80
2022-12-25T12:54:35.186Z,4.82
2022-12-25T12:57:04.826Z,4.68
2022-12-25T12:59:40.277Z,4.81
2022-12-25T13:02:24.059Z,4.66
2022-12-25T13:05:04.079Z,4.62
2022-12-25T13:07:45.941Z,4.74
2022-12-25T13:10:22.975Z,4.82
2022-12-25T13:12:54.942Z,4.91
2022-12-25T13:15:27.434Z,4.99
2022-12-25T13:17:56.686Z,5.01
2022-12-25T13:20:35.084Z,5.09
2022-12-25T13:23:22.421Z,5.02
2022-12-25T13:25:53.934Z,4.94
2022-12-25T13:28:33.869Z,4.94
2022-12-25T13:31:11.962Z,5.02
2022-12-25T13:33:41.747Z,5.10
2022-12-25T13:36:14.674Z,4.90
2022-12-25T13:38:50.525Z,4.91
2022-12-25T13:41:37.911Z,4.94
2022-12-25T13:44:15.232Z,4.96
2022-12-25T13:46:44.453Z,4.96
2022-12-25T13:49:16.999Z,4.94
2022-12-25T13:51:46.214Z,4.92
2022-12-25T13:54:20.867Z,4.93
2022-12-25T13:56:52.452Z,4.84
2022-12-25T13:59:22.877Z,4.83
2022-12-25T14:01:52.295Z,4.95
2022-12-25T14:04:23.238Z,4.85
2022-12-25T14:06:52.779Z,4.89
2022-12-25T14:09:23.449Z,5.03
2022-12-25T14:11:54.559Z,5.01
2022-12-25T14:14:24.440Z,5.09
2022-12-25T14:16:54.615Z,5.02
2022-12-25T14:19:26.973Z,5.11
2022-12-25T14:21:57.633Z,5.11
2022-12-25T14:24:28.984Z,5.06
2022-12-25T14:27:01.846Z,5.14
2022-12-25T14:29:37.063Z,5.23
2022-12-25T14:32:11.713Z,5.12
2022-12-25T14:34:40.030Z,5.15
2022-12-25T14:37:10.953Z,5.13
2022-12-25T14:39:40.432Z,5.25
2022-12-25T14:42:21.543Z,5.14
2022-12-25T14:45:01.966Z,5.31
2022-12-25T14:47:30.920Z,5.27
2022-12-25T14:50:00.038Z,5.26
2022-12-25T14:52:30.202Z,5.33
2022-12-25T14:55:03.125Z,5.32
2022-12-25T14:57:34.604Z,5.39
2022-12-25T15:00:09.367Z,5.53
2022-12-25T15:02:46.120Z,5.50
2022-12-25T15:05:35.439Z,5.45
2022-12-25T15:08:19.500Z,5.45
2022-12-25T15:11:05.155Z,5.40
2022-12-25T15:13:34.280Z,5.40
2022-12-25T15:16:06.267Z,5.49
2022-12-25T15:18:40.384Z,5.42
2022-12-25T15:21:16.231Z,5.54
2022-12-25T15:23:44.467Z,5.43
2022-12-25T15:26:18.101Z,5.56
2022-12-25T15:28:46.415Z,5.54
2022-12-25T15:31:26.353Z,5.64
2022-12-25T15:33:55.314Z,5.59
2022-12-25T15:36:23.927Z,5.58
2022-12-25T15:38:53.274Z,5.63
2022-12-25T15:41:43.304Z,5.65
2022-12-25T15:44:12.609Z,5.68
2022-12-25T15:46:41.293Z,5.71
2022-12-25T15:49:11.577Z,5.78
2022-12-25T15:51:40.257Z,5.83
2022-12-25T15:54:11.171Z,5.79
2022-12-25T15:56:44.233Z,5.78
2022-12-25T15:59:16.822Z,5.82
2022-12-25T16:01:49.633Z,5.88
2022-12-25T16:04:18.329Z,5.89
2022-12-25T16:06:47.119Z,5.95
2022-12-25T16:09:16.177Z,5.98
2022-12-25T16:11:49.090Z,5.98
2022-12-25T16:14:18.757Z,5.97
2022-12-25T16:16:48.353Z,5.94
2022-12-25T16:19:16.395Z,5.93
2022-12-25T16:21:49.391Z,5.95
2022-12-25T16:24:18.090Z,5.93
2022-12-25T16:26:47.873Z,5.96
2022-12-25T16:29:15.988Z,6.02
2022-12-25T16:31:45.907Z,6.04
2022-12-25T16:34:14.410Z,6.07
2022-12-25T16:36:42.490Z,6.02
2022-12-25T16:39:13.414Z,6.10
2022-12-25T16:41:42.989Z,6.14
2022-12-25T16:44:14.716Z,6.06
2022-12-25T16:46:44.193Z,6.17
2022-12-25T16:49:12.856Z,6.14
2022-12-25T16:51:42.371Z,6.12
2022-12-25T16:54:10.680Z,6.20
2022-12-25T16:56:38.644Z,6.20
2022-12-25T16:59:07.199Z,6.22
2022-12-25T17:01:38.200Z,6.23
2022-12-25T17:04:06.989Z,6.13
2022-12-25T17:06:35.303Z,6.14
2022-12-25T17:09:03.817Z,6.18
2022-12-25T17:11:32.166Z,6.14
2022-12-25T17:14:03.563Z,6.15
2022-12-25T17:16:36.410Z,6.09
2022-12-25T17:19:08.217Z,6.11
2022-12-25T17:21:38.157Z,6.15
2022-12-25T17:24:06.964Z,6.10
2022-12-25T17:26:35.179Z,6.14
2022-12-25T17:29:03.343Z,6.21
2022-12-25T17:31:32.216Z,6.23
2022-12-25T17:34:02.940Z,6.24
2022-12-25T17:36:32.599Z,6.27
2022-12-25T17:39:01.721Z,6.28
2022-12-25T17:41:31.880Z,6.22
2022-12-25T17:44:01.801Z,6.22
2022-12-25T17:46:31.607Z,6.25
2022-12-25T17:49:01.478Z,6.19
2022-12-25T17:51:33.043Z,6.21
2022-12-25T17:54:03.299Z,6.28
2022-12-25T17:56:32.612Z,6.28
2022-12-25T17:59:06.942Z,6.27
2022-12-25T18:01:37.171Z,6.25
2022-12-25T18:04:07.200Z,6.32
2022-12-25T18:06:38.146Z,6.34
2022-12-25T18:09:07.130Z,6.33
2022-12-25T18:11:36.968Z,6.30
2022-12-25T18:14:06.990Z,6.30
2022-12-25T18:16:37.366Z,6.29
2022-12-25T18:19:05.945Z,6.35
2022-12-25T18:21:34.737Z,6.35
2022-12-25T18:24:07.128Z,6.31
2022-12-25T18:26:35.755Z,6.32
2022-12-25T18:29:04.696Z,6.39
2022-12-25T18:31:34.355Z,6.33
2022-12-25T18:34:02.893Z,6.39
2022-12-25T18:36:31.812Z,6.45
2022-12-25T18:39:00.682Z,6.46
2022-12-25T18:41:30.669Z,6.46
2022-12-25T18:44:01.034Z,6.46
2022-12-25T18:46:30.140Z,6.41
2022-12-25T18:49:00.283Z,6.38
2022-12-25T18:51:36.876Z,6.42
2022-12-25T18:54:05.626Z,6.49
2022-12-25T18:56:35.772Z,6.46
2022-12-25T18:59:04.346Z,6.57
2022-12-25T19:01:33.177Z,6.51
2022-12-25T19:04:05.657Z,6.50
2022-12-25T19:06:34.417Z,6.57
2022-12-25T19:09:09.324Z,6.56
2022-12-25T19:11:46.550Z,6.51
2022-12-25T19:14:15.408Z,6.59
2022-12-25T19:16:43.653Z,6.53
2022-12-25T19:19:11.713Z,6.55
2022-12-25T19:21:39.741Z,6.52
2022-12-25T19:24:10.498Z,6.60
2022-12-25T19:26:43.699Z,6.58
2022-12-25T19:29:12.465Z,6.63
2022-12-25T19:31:41.587Z,6.67
2022-12-25T19:34:10.291Z,6.60
2022-12-25T19:36:40.478Z,6.59
2022-12-25T19:39:10.089Z,6.58
2022-12-25T19:41:39.752Z,6.58
2022-12-25T19:44:08.721Z,6.62
2022-12-25T19:46:40.385Z,6.63
2022-12-25T19:49:09.356Z,6.61
2022-12-25T19:51:38.900Z,6.67
2022-12-25T19:54:08.148Z,6.65
2022-12-25T19:56:36.883Z,6.74
2022-12-25T19:59:06.553Z,6.70
2022-12-25T20:01:34.969Z,6.69
2022-12-25T20:04:03.775Z,6.69
2022-12-25T20:06:33.384Z,6.77
2022-12-25T20:09:03.097Z,6.73
2022-12-25T20:11:33.482Z,6.71
2022-12-25T20:14:02.238Z,6.77
2022-12-25T20:16:31.720Z,6.78
2022-12-25T20:19:00.453Z,6.75
2022-12-25T20:21:29.820Z,6.86
2022-12-25T20:23:58.381Z,6.73
2022-12-25T20:26:30.512Z,6.77
2022-12-25T20:28:58.841Z,6.78
2022-12-25T20:31:28.964Z,6.82
2022-12-25T20:33:59.375Z,6.84
2022-12-25T20:36:32.790Z,6.87
2022-12-25T20:39:05.306Z,6.91
2022-12-25T20:41:33.404Z,6.90
2022-12-25T20:44:04.359Z,6.87
2022-12-25T20:46:33.734Z,6.88
2022-12-25T20:49:04.530Z,6.93
2022-12-25T20:51:33.059Z,7.01
2022-12-25T20:54:01.548Z,6.95
2022-12-25T20:56:30.314Z,6.98
2022-12-25T20:58:59.555Z,7.00
2022-12-25T21:01:28.540Z,6.99
2022-12-25T21:03:57.541Z,6.99
2022-12-25T21:06:28.335Z,7.09
2022-12-25T21:08:56.516Z,7.05
2022-12-25T21:11:24.864Z,7.08
2022-12-25T21:13:54.873Z,7.06
2022-12-25T21:16:23.764Z,7.05
2022-12-25T21:18:53.322Z,7.08
2022-12-25T21:21:22.313Z,7.03
2022-12-25T21:23:52.218Z,7.05
2022-12-25T21:26:25.097Z,7.08
2022-12-25T21:28:55.009Z,7.05
2022-12-25T21:31:25.625Z,7.08
2022-12-25T21:33:53.429Z,7.04
2022-12-25T21:36:24.431Z,7.07
2022-12-25T21:39:00.434Z,7.13
2022-12-25T21:41:30.521Z,7.17
2022-12-25T21:43:59.315Z,7.12
2022-12-25T21:46:30.029Z,7.21
2022-12-25T21:48:59.394Z,7.22
2022-12-25T21:51:46.511Z,7.18
2022-12-25T21:54:19.392Z,7.26
2022-12-25T21:56:48.969Z,7.18
2022-12-25T21:59:18.571Z,7.22
2022-12-25T22:01:48.943Z,7.19
2022-12-25T22:04:18.539Z,7.31
2022-12-25T22:07:04.453Z,7.24
2022-12-25T22:09:34.886Z,7.29
2022-12-25T22:12:21.500Z,7.25
2022-12-25T22:14:55.357Z,7.23
2022-12-25T22:17:44.874Z,7.27
2022-12-25T22:20:16.209Z,7.36
2022-12-25T22:22:45.064Z,7.33
2022-12-25T22:25:15.466Z,7.35
2022-12-25T22:27:45.794Z,7.43
2022-12-25T22:30:17.379Z,7.41
2022-12-25T22:32:46.285Z,7.50
2022-12-25T22:35:19.534Z,7.53
2022-12-25T22:37:48.362Z,7.55
2022-12-25T22:40:19.565Z,7.49
2022-12-25T22:42:48.023Z,7.50
2022-12-25T22:45:16.382Z,7.58
2022-12-25T22:47:44.980Z,7.64
2022-12-25T22:50:14.660Z,7.62
2022-12-25T22:52:45.810Z,7.60
2022-12-25T22:55:20.291Z,7.66
2022-12-25T22:57:48.970Z,7.66
2022-12-25T23:00:18.881Z,7.69
2022-12-25T23:02:49.366Z,7.70
2022-12-25T23:05:17.957Z,7.77
2022-12-25T23:07:46.704Z,7.78
2022-12-25T23:10:14.828Z,7.87
2022-12-25T23:13:01.906Z,7.90
2022-12-25T23:15:31.657Z,7.84
2022-12-25T23:18:20.525Z,7.92
2022-12-25T23:21:08.038Z,8.03
2022-12-25T23:23:53.341Z,8.05
2022-12-25T23:26:24.040Z,8.03
2022-12-25T23:29:11.492Z,8.11
2022-12-25T23:31:41.480Z,8.06
2022-12-25T23:34:10.425Z,8.09
2022-12-25T23:36:38.622Z,8.16
2022-12-25T23:39:10.067Z,8.27
2022-12-25T23:41:40.715Z,8.25
2022-12-25T23:44:11.056Z,8.11
2022-12-25T23:46:40.618Z,8.21
2022-12-25T23:49:09.375Z,8.26
2022-12-25T23:51:38.737Z,8.24
2022-12-25T23:54:07.759Z,8.24
2022-12-25T23:56:36.010Z,8.27
2022-12-25T23:59:05.798Z,8.35
